Time;durP1;ratioP1;P1;durP2;ratioP2;P2;SDS_P1;SDS_P2;PMS_P1;PMS_P2;Temp;Humidity;BMP_temperature;BMP_pressure;BME280_temperature;BME280_humidity;BME280_pressure;Samples;Min_cycle;Max_cycle;Signal;HPM_P1;HPM_P2
2023/06/09 00:02:18;;;;;;;;;;;;;;;15.01;100.00;97110.59;110267;1241;59721;-70
2023/06/09 00:04:48;;;;;;;;;;;;;;;14.94;100.00;97108.83;110196;1239;71400;-69
2023/06/09 00:07:19;;;;;;;;;;;;;;;14.89;100.00;97106.14;110336;1241;68483;-70
2023/06/09 00:09:49;;;;;;;;;;;;;;;14.87;100.00;97109.32;110315;1241;68536;-69
2023/06/09 00:12:20;;;;;;;;;;;;;;;14.85;100.00;97112.27;110391;1241;59728;-70
2023/06/09 00:14:52;;;;;;;;;;;;;;;14.85;100.00;97115.63;110232;1241;59679;-69
2023/06/09 00:17:24;;;;;;;;;;;;;;;14.87;100.00;97112.14;110232;1241;71446;-69
2023/06/09 00:20:02;;;;;;;;;;;;;;;14.86;100.00;97107.83;110276;1241;69251;-70
2023/06/09 00:22:42;;;;;;;;;;;;;;;14.84;100.00;97109.27;110307;1241;68539;-69
2023/06/09 00:25:12;;;;;;;;;;;;;;;14.81;100.00;97109.17;110253;1241;59685;-69
2023/06/09 00:27:46;;;;;;;;;;;;;;;14.80;100.00;97113.35;110234;1241;59688;-69
2023/06/09 00:30:20;;;;;;;;;;;;;;;14.78;100.00;97112.61;110233;1241;71954;-70
2023/06/09 00:33:07;;;;;;;;;;;;;;;14.76;100.00;97107.91;110227;1241;69314;-69
2023/06/09 00:35:37;;;;;;;;;;;;;;;14.75;100.00;97108.85;110248;1241;69867;-70
2023/06/09 00:38:08;;;;;;;;;;;;;;;14.74;100.00;97112.29;110249;1240;59723;-69
2023/06/09 00:40:39;;;;;;;;;;;;;;;14.72;100.00;97107.77;110309;1240;59726;-69
2023/06/09 00:43:11;;;;;;;;;;;;;;;14.71;100.00;97110.67;110281;1247;69553;-69
2023/06/09 00:45:42;;;;;;;;;;;;;;;14.68;100.00;97108.45;110116;1244;69057;-70
2023/06/09 00:48:11;;;;;;;;;;;;;;;14.65;100.00;97104.17;110424;1240;69292;-70
2023/06/09 00:50:41;;;;;;;;;;;;;;;14.63;100.00;97103.85;110242;1241;59799;-69
2023/06/09 00:53:12;;;;;;;;;;;;;;;14.60;100.00;97102.40;110442;1239;59598;-69
2023/06/09 00:55:43;;;;;;;;;;;;;;;14.58;100.00;97099.81;110233;1241;71261;-69
2023/06/09 00:58:12;;;;;;;;;;;;;;;14.55;100.00;97098.09;110369;1240;69067;-67
2023/06/09 01:00:43;;;;;;;;;;;;;;;14.55;100.00;97098.98;110251;1241;69335;-70
2023/06/09 01:03:13;;;;;;;;;;;;;;;14.56;100.00;97099.64;110430;1241;59734;-69
2023/06/09 01:05:48;;;;;;;;;;;;;;;14.54;100.00;97092.06;110297;1239;59737;-71
2023/06/09 01:08:22;;;;;;;;;;;;;;;14.51;100.00;97091.47;110254;1239;71497;-69
2023/06/09 01:11:05;;;;;;;;;;;;;;;14.48;100.00;97093.33;110295;1241;69430;-70
2023/06/09 01:13:38;;;;;;;;;;;;;;;14.41;100.00;97099.21;110275;1239;68565;-70
2023/06/09 01:16:11;;;;;;;;;;;;;;;14.37;100.00;97095.37;110260;1241;59703;-69
2023/06/09 01:18:45;;;;;;;;;;;;;;;14.33;100.00;97091.34;110148;1244;59721;-69
2023/06/09 01:21:35;;;;;;;;;;;;;;;14.28;100.00;97090.09;110156;1243;71266;-69
2023/06/09 01:24:23;;;;;;;;;;;;;;;14.23;100.00;97085.91;110152;1243;69710;-69
2023/06/09 01:26:55;;;;;;;;;;;;;;;14.21;100.00;97084.96;110244;1241;69075;-69
2023/06/09 01:29:27;;;;;;;;;;;;;;;14.19;100.00;97085.11;110222;1242;59799;-69
2023/06/09 01:31:57;;;;;;;;;;;;;;;14.18;100.00;97086.30;110277;1241;59631;-69
2023/06/09 01:34:27;;;;;;;;;;;;;;;14.15;100.00;97090.58;110235;1240;71239;-69
2023/06/09 01:36:58;;;;;;;;;;;;;;;14.09;100.00;97088.47;110316;1241;68470;-71
2023/06/09 01:39:28;;;;;;;;;;;;;;;14.05;100.00;97087.70;110316;1241;69155;-69
2023/06/09 01:42:00;;;;;;;;;;;;;;;14.01;100.00;97086.28;110156;1244;59735;-69
2023/06/09 01:44:31;;;;;;;;;;;;;;;14.00;100.00;97084.61;110164;1244;59740;-69
2023/06/09 01:47:03;;;;;;;;;;;;;;;13.99;100.00;97082.05;110278;1241;70765;-69
2023/06/09 01:49:36;;;;;;;;;;;;;;;13.98;100.00;97082.15;110338;1241;69245;-68
2023/06/09 01:52:12;;;;;;;;;;;;;;;13.97;100.00;97082.38;110276;1240;68769;-70
2023/06/09 01:54:54;;;;;;;;;;;;;;;13.97;100.00;97086.77;110321;1239;59752;-70
2023/06/09 01:57:25;;;;;;;;;;;;;;;13.96;100.00;97089.21;110272;1241;59658;-69
2023/06/09 01:59:59;;;;;;;;;;;;;;;13.94;100.00;97089.18;110189;1243;71458;-69
2023/06/09 02:02:32;;;;;;;;;;;;;;;13.91;100.00;97090.66;110177;1243;69295;-70
2023/06/09 02:05:06;;;;;;;;;;;;;;;13.88;100.00;97091.46;110168;1243;68340;-69
2023/06/09 02:07:39;;;;;;;;;;;;;;;13.87;100.00;97091.77;110189;1240;59781;-70
2023/06/09 02:10:11;;;;;;;;;;;;;;;13.85;100.00;97092.45;110492;1239;59677;-69
2023/06/09 02:12:41;;;;;;;;;;;;;;;13.84;100.00;97091.52;110171;1244;71628;-70
2023/06/09 02:15:12;;;;;;;;;;;;;;;13.83;100.00;97089.50;110294;1241;68365;-69
2023/06/09 02:17:42;;;;;;;;;;;;;;;13.81;100.00;97084.44;110199;1240;68680;-69
2023/06/09 02:20:13;;;;;;;;;;;;;;;13.78;100.00;97089.06;110146;1243;59750;-69
2023/06/09 02:22:45;;;;;;;;;;;;;;;13.73;100.00;97093.88;110295;1240;59674;-71
2023/06/09 02:25:16;;;;;;;;;;;;;;;13.71;100.00;97088.48;110151;1240;71833;-71
2023/06/09 02:27:46;;;;;;;;;;;;;;;13.69;100.00;97092.33;110121;1244;69134;-68
2023/06/09 02:30:16;;;;;;;;;;;;;;;13.67;100.00;97089.51;110166;1244;68814;-71
2023/06/09 02:32:47;;;;;;;;;;;;;;;13.66;100.00;97090.00;110419;1240;59754;-71
2023/06/09 02:35:20;;;;;;;;;;;;;;;13.66;100.00;97089.48;110337;1241;59677;-70
2023/06/09 02:37:54;;;;;;;;;;;;;;;13.65;100.00;97090.39;110321;1241;71414;-69
2023/06/09 02:40:27;;;;;;;;;;;;;;;13.65;100.00;97095.18;110250;1241;69233;-69
2023/06/09 02:42:58;;;;;;;;;;;;;;;13.64;100.00;97095.03;110175;1243;68542;-69
2023/06/09 02:45:29;;;;;;;;;;;;;;;13.62;100.00;97097.71;110309;1240;59738;-69
2023/06/09 02:48:01;;;;;;;;;;;;;;;13.62;100.00;97097.02;110190;1243;59644;-70
2023/06/09 02:50:31;;;;;;;;;;;;;;;13.62;100.00;97101.72;110318;1244;70824;-70
2023/06/09 02:53:02;;;;;;;;;;;;;;;13.61;100.00;97105.48;110430;1241;69227;-69
2023/06/09 02:55:33;;;;;;;;;;;;;;;13.57;100.00;97106.86;110465;1240;68310;-69
2023/06/09 02:58:03;;;;;;;;;;;;;;;13.54;100.00;97105.42;110243;1244;60063;-69
2023/06/09 03:00:35;;;;;;;;;;;;;;;13.55;100.00;97106.59;110296;1241;59630;-70
2023/06/09 03:03:07;;;;;;;;;;;;;;;13.54;100.00;97107.85;110352;1240;71436;-69
2023/06/09 03:05:43;;;;;;;;;;;;;;;13.53;100.00;97112.69;110440;1241;67929;-69
2023/06/09 03:08:15;;;;;;;;;;;;;;;13.53;100.00;97115.86;110292;1241;68696;-71
2023/06/09 03:10:45;;;;;;;;;;;;;;;13.54;100.00;97110.15;110307;1240;59676;-70
2023/06/09 03:13:16;;;;;;;;;;;;;;;13.57;100.00;97112.30;110510;1241;59757;-71
2023/06/09 03:15:50;;;;;;;;;;;;;;;13.62;100.00;97110.30;110412;1240;71956;-70
2023/06/09 03:18:20;;;;;;;;;;;;;;;13.65;100.00;97113.86;110487;1240;68615;-70
2023/06/09 03:20:50;;;;;;;;;;;;;;;13.68;100.00;97111.65;110294;1244;68321;-70
2023/06/09 03:23:21;;;;;;;;;;;;;;;13.73;100.00;97111.73;110237;1241;59760;-70
2023/06/09 03:25:53;;;;;;;;;;;;;;;13.75;100.00;97114.30;110233;1243;59692;-69
2023/06/09 03:28:26;;;;;;;;;;;;;;;13.78;100.00;97117.65;110267;1239;70661;-69
2023/06/09 03:30:56;;;;;;;;;;;;;;;13.82;100.00;97122.48;110256;1240;68598;-70
2023/06/09 03:33:27;;;;;;;;;;;;;;;13.88;100.00;97120.93;110132;1244;69667;-68
2023/06/09 03:35:57;;;;;;;;;;;;;;;13.93;100.00;97125.16;110448;1239;59751;-69
2023/06/09 03:38:28;;;;;;;;;;;;;;;13.97;100.00;97124.98;110335;1241;59733;-69
2023/06/09 03:40:58;;;;;;;;;;;;;;;14.03;100.00;97126.20;110169;1239;71875;-71
2023/06/09 03:43:28;;;;;;;;;;;;;;;14.11;100.00;97125.81;110120;1244;69826;-69
2023/06/09 03:45:58;;;;;;;;;;;;;;;14.19;100.00;97123.84;110230;1243;69114;-69
2023/06/09 03:48:28;;;;;;;;;;;;;;;14.27;100.00;97131.55;110115;1244;59758;-70
2023/06/09 03:50:58;;;;;;;;;;;;;;;14.36;100.00;97129.12;110377;1241;60076;-70
2023/06/09 03:53:28;;;;;;;;;;;;;;;14.49;100.00;97129.70;110306;1241;70645;-70
2023/06/09 03:55:58;;;;;;;;;;;;;;;14.60;100.00;97128.34;110291;1244;69063;-70
2023/06/09 03:58:29;;;;;;;;;;;;;;;14.70;100.00;97133.31;110251;1240;68530;-70
2023/06/09 04:01:00;;;;;;;;;;;;;;;14.82;100.00;97134.02;110372;1241;59733;-70
2023/06/09 04:03:30;;;;;;;;;;;;;;;14.95;100.00;97135.21;110129;1239;59717;-70
2023/06/09 04:05:59;;;;;;;;;;;;;;;15.08;100.00;97132.77;110391;1240;70436;-70
2023/06/09 04:08:29;;;;;;;;;;;;;;;15.19;100.00;97131.89;110096;1244;69158;-70
2023/06/09 04:11:00;;;;;;;;;;;;;;;15.28;100.00;97130.98;110273;1241;69191;-70
2023/06/09 04:13:31;;;;;;;;;;;;;;;15.39;100.00;97129.25;110245;1240;59822;-69
2023/06/09 04:15:59;;;;;;;;;;;;;;;15.51;100.00;97128.19;110236;1240;59750;-70
2023/06/09 04:18:29;;;;;;;;;;;;;;;15.65;100.00;97130.39;110473;1241;70711;-70
2023/06/09 04:20:58;;;;;;;;;;;;;;;15.81;100.00;97132.39;110158;1243;69768;-71
2023/06/09 04:23:27;;;;;;;;;;;;;;;15.96;100.00;97133.17;110471;1241;69311;-70
2023/06/09 04:25:59;;;;;;;;;;;;;;;16.10;100.00;97137.09;110456;1241;59739;-69
2023/06/09 04:28:32;;;;;;;;;;;;;;;16.22;100.00;97138.77;110134;1240;59742;-70
2023/06/09 04:31:02;;;;;;;;;;;;;;;16.33;100.00;97139.34;110286;1244;71398;-69
2023/06/09 04:33:32;;;;;;;;;;;;;;;16.45;100.00;97145.30;110164;1245;69820;-70
2023/06/09 04:36:03;;;;;;;;;;;;;;;16.56;100.00;97144.71;110407;1241;69859;-70
2023/06/09 04:38:33;;;;;;;;;;;;;;;16.74;100.00;97147.27;110255;1242;59688;-71
2023/06/09 04:41:03;;;;;;;;;;;;;;;16.90;100.00;97147.98;110408;1241;59716;-69
2023/06/09 04:43:36;;;;;;;;;;;;;;;17.06;100.00;97147.41;110314;1240;71486;-71
2023/06/09 04:46:06;;;;;;;;;;;;;;;17.24;100.00;97147.77;110190;1239;68767;-71
2023/06/09 04:48:35;;;;;;;;;;;;;;;17.44;100.00;97147.49;110438;1241;69367;-71
2023/06/09 04:51:05;;;;;;;;;;;;;;;17.64;100.00;97144.99;110164;1244;59696;-70
2023/06/09 04:53:40;;;;;;;;;;;;;;;17.87;98.44;97147.48;110421;1241;60120;-70
2023/06/09 04:56:09;;;;;;;;;;;;;;;18.10;97.57;97147.92;110429;1241;71818;-70
2023/06/09 04:58:38;;;;;;;;;;;;;;;18.29;93.96;97144.23;110283;1241;68350;-70
2023/06/09 05:01:07;;;;;;;;;;;;;;;18.48;92.38;97150.95;110298;1242;69317;-69
2023/06/09 05:03:37;;;;;;;;;;;;;;;18.73;94.37;97146.13;110295;1241;59732;-69
2023/06/09 05:06:07;;;;;;;;;;;;;;;19.03;95.22;97140.32;110266;1241;59670;-70
2023/06/09 05:08:36;;;;;;;;;;;;;;;19.33;90.41;97138.05;110282;1241;72382;-73
2023/06/09 05:11:07;;;;;;;;;;;;;;;19.65;90.58;97136.88;110315;1243;69299;-72
2023/06/09 05:13:36;;;;;;;;;;;;;;;19.99;87.15;97140.04;110217;1240;69291;-73
2023/06/09 05:16:06;;;;;;;;;;;;;;;20.39;85.84;97137.23;110417;1241;59705;-72
2023/06/09 05:18:36;;;;;;;;;;;;;;;20.78;79.70;97135.81;110288;1241;59731;-72
2023/06/09 05:21:06;;;;;;;;;;;;;;;21.03;77.50;97135.46;110570;1244;71398;-73
2023/06/09 05:23:35;;;;;;;;;;;;;;;21.20;73.23;97132.70;110403;1239;69052;-74
2023/06/09 05:26:05;;;;;;;;;;;;;;;21.28;73.89;97135.93;110340;1241;69738;-72
2023/06/09 05:28:34;;;;;;;;;;;;;;;21.46;71.64;97134.33;110202;1243;59697;-71
2023/06/09 05:31:04;;;;;;;;;;;;;;;21.51;69.53;97136.83;110425;1241;59677;-70
2023/06/09 05:33:34;;;;;;;;;;;;;;;21.64;70.77;97134.81;110226;1241;71378;-70
2023/06/09 05:36:05;;;;;;;;;;;;;;;21.73;70.94;97135.98;110281;1243;69261;-71
2023/06/09 05:38:35;;;;;;;;;;;;;;;21.67;68.70;97135.02;110246;1244;69303;-71
2023/06/09 05:41:05;;;;;;;;;;;;;;;21.76;67.68;97140.05;110407;1241;59696;-74
2023/06/09 05:43:34;;;;;;;;;;;;;;;21.84;69.80;97138.77;110288;1241;59692;-72
2023/06/09 05:46:03;;;;;;;;;;;;;;;21.87;67.44;97140.55;110403;1241;71343;-72
2023/06/09 05:48:31;;;;;;;;;;;;;;;21.90;65.64;97141.79;110374;1241;69411;-71
2023/06/09 05:51:00;;;;;;;;;;;;;;;21.91;64.90;97145.66;110434;1241;69870;-71
2023/06/09 05:53:32;;;;;;;;;;;;;;;21.85;62.49;97144.62;110413;1241;59735;-71
2023/06/09 05:56:02;;;;;;;;;;;;;;;21.78;60.60;97138.21;110238;1241;59684;-71
2023/06/09 05:58:33;;;;;;;;;;;;;;;21.68;59.84;97139.69;110414;1241;71412;-71
2023/06/09 06:01:05;;;;;;;;;;;;;;;21.65;62.14;97138.96;110296;1241;68464;-72
2023/06/09 06:03:34;;;;;;;;;;;;;;;21.66;60.18;97141.64;110259;1241;69325;-71
2023/06/09 06:06:03;;;;;;;;;;;;;;;21.72;60.39;97138.99;110399;1240;59736;-71
2023/06/09 06:08:32;;;;;;;;;;;;;;;21.83;60.50;97139.23;110241;1243;59703;-72
2023/06/09 06:11:03;;;;;;;;;;;;;;;21.92;60.09;97140.42;110382;1240;71403;-71
2023/06/09 06:13:32;;;;;;;;;;;;;;;22.05;59.46;97140.80;110234;1241;69572;-71
2023/06/09 06:16:01;;;;;;;;;;;;;;;22.19;57.22;97138.67;110391;1241;69394;-71
2023/06/09 06:18:31;;;;;;;;;;;;;;;22.39;59.15;97141.83;110204;1241;59657;-70
2023/06/09 06:21:00;;;;;;;;;;;;;;;22.61;57.61;97142.58;110455;1241;59724;-72
2023/06/09 06:23:29;;;;;;;;;;;;;;;22.86;56.27;97143.41;110439;1240;71403;-73
2023/06/09 06:25:58;;;;;;;;;;;;;;;23.05;54.83;97146.87;110532;1241;69766;-71
2023/06/09 06:28:28;;;;;;;;;;;;;;;23.23;52.89;97145.90;110336;1241;69120;-72
2023/06/09 06:30:57;;;;;;;;;;;;;;;23.40;50.60;97143.67;110440;1241;59670;-71
2023/06/09 06:33:27;;;;;;;;;;;;;;;23.59;49.79;97146.30;110400;1240;59652;-71
2023/06/09 06:35:56;;;;;;;;;;;;;;;23.92;50.41;97140.51;110400;1239;71836;-72
2023/06/09 06:38:25;;;;;;;;;;;;;;;24.20;48.84;97145.19;110410;1241;69207;-70
2023/06/09 06:40:57;;;;;;;;;;;;;;;24.39;49.42;97140.52;110244;1240;69135;-72
2023/06/09 06:43:25;;;;;;;;;;;;;;;24.63;49.32;97141.64;110253;1241;59694;-71
2023/06/09 06:45:58;;;;;;;;;;;;;;;24.76;47.81;97140.98;110390;1239;59702;-71
2023/06/09 06:48:28;;;;;;;;;;;;;;;24.79;48.22;97144.02;109695;1241;828196;-72
2023/06/09 06:50:57;;;;;;;;;;;;;;;24.77;46.98;97141.14;110426;1241;69855;-71
2023/06/09 06:53:25;;;;;;;;;;;;;;;24.95;46.66;97137.77;110371;1241;68509;-71
2023/06/09 06:55:54;;;;;;;;;;;;;;;25.20;45.29;97136.24;110402;1241;59741;-73
2023/06/09 06:58:23;;;;;;;;;;;;;;;25.69;47.25;97130.38;110251;1240;59714;-71
2023/06/09 07:00:54;;;;;;;;;;;;;;;26.09;45.48;97128.92;110476;1240;71250;-71
2023/06/09 07:03:26;;;;;;;;;;;;;;;26.44;45.26;97129.41;110413;1240;68508;-72
2023/06/09 07:05:55;;;;;;;;;;;;;;;26.67;43.37;97129.27;110393;1241;69232;-71
2023/06/09 07:08:23;;;;;;;;;;;;;;;27.09;43.20;97124.08;110399;1240;59726;-70
2023/06/09 07:10:52;;;;;;;;;;;;;;;27.28;43.19;97124.49;110420;1241;59678;-71
2023/06/09 07:13:21;;;;;;;;;;;;;;;27.28;41.03;97125.77;110410;1241;71929;-72
2023/06/09 07:15:50;;;;;;;;;;;;;;;26.97;38.71;97128.02;110429;1241;69216;-72
2023/06/09 07:18:18;;;;;;;;;;;;;;;26.70;38.55;97125.98;110407;1241;69868;-71
2023/06/09 07:20:48;;;;;;;;;;;;;;;26.73;39.50;97126.45;110417;1240;59653;-71
2023/06/09 07:23:17;;;;;;;;;;;;;;;26.71;39.17;97126.55;110470;1241;59709;-73
2023/06/09 07:25:45;;;;;;;;;;;;;;;26.66;38.68;97125.44;110581;1241;70460;-72
2023/06/09 07:28:14;;;;;;;;;;;;;;;26.70;37.71;97124.66;110615;1240;68358;-72
2023/06/09 07:30:42;;;;;;;;;;;;;;;26.72;38.89;97124.44;110434;1241;69840;-73
2023/06/09 07:33:11;;;;;;;;;;;;;;;26.90;38.99;97125.38;110400;1239;59761;-71
2023/06/09 07:35:40;;;;;;;;;;;;;;;26.94;39.41;97121.09;110437;1239;59724;-72
2023/06/09 07:38:09;;;;;;;;;;;;;;;26.78;39.41;97117.88;110424;1240;71197;-72
2023/06/09 07:40:37;;;;;;;;;;;;;;;26.92;40.41;97116.56;110467;1241;69971;-73
2023/06/09 07:43:08;;;;;;;;;;;;;;;27.24;39.62;97114.19;110279;1239;69361;-72
2023/06/09 07:45:37;;;;;;;;;;;;;;;27.54;38.39;97111.37;110415;1241;59668;-71
2023/06/09 07:48:06;;;;;;;;;;;;;;;27.43;37.76;97110.73;110397;1241;59732;-72
2023/06/09 07:50:36;;;;;;;;;;;;;;;27.25;37.85;97109.27;110381;1240;70537;-71
2023/06/09 07:53:24;;;;;;;;;;;;;;;27.28;38.50;97106.73;110383;1241;69195;-72
2023/06/09 07:55:53;;;;;;;;;;;;;;;27.64;38.48;97104.52;110382;1241;69261;-72
2023/06/09 07:58:22;;;;;;;;;;;;;;;27.91;36.19;97108.45;110419;1241;59744;-72
2023/06/09 08:00:51;;;;;;;;;;;;;;;28.09;34.76;97111.29;110415;1240;59696;-71
2023/06/09 08:03:19;;;;;;;;;;;;;;;28.06;34.78;97113.97;110411;1239;71948;-71
2023/06/09 08:05:48;;;;;;;;;;;;;;;27.96;35.55;97109.45;110397;1241;69640;-71
2023/06/09 08:08:17;;;;;;;;;;;;;;;28.03;35.50;97111.95;110407;1241;69604;-71
2023/06/09 08:10:45;;;;;;;;;;;;;;;28.26;35.53;97113.45;110413;1241;59685;-72
2023/06/09 08:13:15;;;;;;;;;;;;;;;28.25;35.32;97110.80;110416;1240;59732;-71
2023/06/09 08:15:44;;;;;;;;;;;;;;;28.41;35.58;97111.85;110391;1239;71257;-71
2023/06/09 08:18:12;;;;;;;;;;;;;;;28.64;35.24;97106.52;110406;1241;67497;-71
2023/06/09 08:20:41;;;;;;;;;;;;;;;28.98;35.09;97109.83;110254;1240;69279;-71
2023/06/09 08:23:10;;;;;;;;;;;;;;;29.04;35.16;97108.35;110278;1239;59748;-72
2023/06/09 08:25:39;;;;;;;;;;;;;;;29.20;34.24;97106.80;110438;1240;59689;-71
2023/06/09 08:28:10;;;;;;;;;;;;;;;29.06;34.81;97108.39;110416;1239;71420;-71
2023/06/09 08:30:38;;;;;;;;;;;;;;;29.30;35.12;97110.89;110440;1240;68246;-72
2023/06/09 08:33:07;;;;;;;;;;;;;;;29.43;34.82;97109.17;110464;1241;69087;-73
2023/06/09 08:35:35;;;;;;;;;;;;;;;28.66;34.60;97105.15;110707;1242;59742;-71
2023/06/09 08:38:04;;;;;;;;;;;;;;;28.68;35.01;97105.48;110317;1241;59668;-71
2023/06/09 08:40:35;;;;;;;;;;;;;;;28.89;36.59;97103.08;110419;1240;71943;-72
2023/06/09 08:43:06;;;;;;;;;;;;;;;29.30;35.87;97097.60;110382;1239;69209;-71
2023/06/09 08:45:35;;;;;;;;;;;;;;;29.51;35.53;97098.34;110357;1241;70202;-72
2023/06/09 08:48:05;;;;;;;;;;;;;;;29.62;35.02;97096.31;110430;1241;59753;-71
2023/06/09 08:50:41;;;;;;;;;;;;;;;29.65;34.73;97094.80;110410;1240;59639;-72
2023/06/09 08:53:10;;;;;;;;;;;;;;;29.53;34.63;97096.83;110441;1241;70961;-72
2023/06/09 08:55:39;;;;;;;;;;;;;;;29.56;34.79;97095.92;110381;1240;69018;-71
2023/06/09 08:58:08;;;;;;;;;;;;;;;30.09;34.40;97090.00;110412;1243;68561;-72
2023/06/09 09:00:37;;;;;;;;;;;;;;;30.11;33.11;97090.26;110421;1239;59676;-71
2023/06/09 09:03:06;;;;;;;;;;;;;;;30.21;32.93;97089.88;110219;1244;59693;-71
2023/06/09 09:05:35;;;;;;;;;;;;;;;30.42;32.90;97086.27;110379;1241;71380;-72
2023/06/09 09:08:04;;;;;;;;;;;;;;;30.97;32.80;97084.98;110357;1241;69982;-71
2023/06/09 09:10:33;;;;;;;;;;;;;;;31.35;32.25;97078.55;110265;1240;69115;-71
2023/06/09 09:13:05;;;;;;;;;;;;;;;31.70;31.81;97079.60;110468;1241;59724;-72
2023/06/09 09:15:34;;;;;;;;;;;;;;;31.69;31.22;97078.84;110413;1239;59744;-71
2023/06/09 09:18:06;;;;;;;;;;;;;;;31.46;30.66;97074.59;110448;1241;71274;-73
2023/06/09 09:20:35;;;;;;;;;;;;;;;30.92;31.07;97072.98;110282;1240;68594;-73
2023/06/09 09:23:04;;;;;;;;;;;;;;;30.77;30.75;97071.89;110416;1239;70029;-72
2023/06/09 09:25:33;;;;;;;;;;;;;;;30.63;31.52;97068.77;110474;1241;59668;-72
2023/06/09 09:28:02;;;;;;;;;;;;;;;30.90;31.11;97070.34;110257;1239;59737;-71
2023/06/09 09:30:39;;;;;;;;;;;;;;;31.16;30.85;97066.92;110377;1240;72018;-70
2023/06/09 09:33:11;;;;;;;;;;;;;;;30.96;30.37;97065.80;110425;1241;68373;-72
2023/06/09 09:35:42;;;;;;;;;;;;;;;31.00;30.82;97065.21;110350;1246;69278;-72
2023/06/09 09:38:13;;;;;;;;;;;;;;;31.04;30.66;97063.27;110242;1244;59676;-71
2023/06/09 09:40:45;;;;;;;;;;;;;;;31.39;30.41;97063.00;110247;1241;59642;-72
2023/06/09 09:43:15;;;;;;;;;;;;;;;31.56;29.91;97064.16;110311;1241;70631;-72
2023/06/09 09:45:47;;;;;;;;;;;;;;;31.27;30.10;97058.80;110238;1244;68478;-72
2023/06/09 09:48:18;;;;;;;;;;;;;;;31.37;30.10;97061.30;110236;1244;70222;-72
2023/06/09 09:50:48;;;;;;;;;;;;;;;31.58;30.18;97057.64;110255;1243;59753;-72
2023/06/09 09:53:17;;;;;;;;;;;;;;;31.97;30.17;97061.09;110231;1242;59756;-72
2023/06/09 09:55:46;;;;;;;;;;;;;;;32.06;28.20;97054.94;110242;1244;71268;-71
2023/06/09 09:58:17;;;;;;;;;;;;;;;32.08;29.09;97052.96;110218;1244;69396;-71
2023/06/09 10:00:48;;;;;;;;;;;;;;;31.68;28.30;97048.11;110206;1241;69760;-72
2023/06/09 10:03:18;;;;;;;;;;;;;;;31.10;29.55;97046.66;110208;1244;59677;-72
2023/06/09 10:05:48;;;;;;;;;;;;;;;31.43;29.96;97046.08;110047;1244;59610;-71
2023/06/09 10:08:21;;;;;;;;;;;;;;;31.44;29.28;97047.27;110233;1243;71412;-70
2023/06/09 10:10:50;;;;;;;;;;;;;;;31.67;30.03;97037.75;110229;1243;68475;-71
2023/06/09 10:13:19;;;;;;;;;;;;;;;31.89;29.78;97039.60;110227;1241;69174;-71
2023/06/09 10:15:51;;;;;;;;;;;;;;;31.38;28.82;97036.72;110270;1241;59738;-72
2023/06/09 10:18:20;;;;;;;;;;;;;;;31.20;29.17;97035.60;110224;1243;59700;-72
2023/06/09 10:20:50;;;;;;;;;;;;;;;31.11;28.35;97029.77;110232;1244;71290;-72
2023/06/09 10:23:20;;;;;;;;;;;;;;;30.43;29.72;97029.33;110231;1241;69648;-71
2023/06/09 10:25:49;;;;;;;;;;;;;;;30.33;30.03;97026.09;110192;1244;69869;-72
2023/06/09 10:28:19;;;;;;;;;;;;;;;30.29;29.93;97027.17;110246;1243;59707;-70
2023/06/09 10:30:49;;;;;;;;;;;;;;;30.04;30.81;97025.39;110131;1244;59648;-72
2023/06/09 10:33:24;;;;;;;;;;;;;;;29.99;30.76;97025.09;110267;1243;71341;-71
2023/06/09 10:35:56;;;;;;;;;;;;;;;30.15;31.18;97019.13;110264;1243;69853;-71
2023/06/09 10:38:40;;;;;;;;;;;;;;;30.10;31.64;97012.09;110458;1241;67909;-73
2023/06/09 10:41:11;;;;;;;;;;;;;;;29.81;31.46;97008.35;110352;1241;59669;-72
2023/06/09 10:43:42;;;;;;;;;;;;;;;28.95;31.80;97009.09;110277;1243;59689;-71
2023/06/09 10:46:14;;;;;;;;;;;;;;;28.78;33.30;97003.90;110253;1244;71988;-71
2023/06/09 10:48:48;;;;;;;;;;;;;;;28.45;32.95;97004.67;110449;1241;69188;-71
2023/06/09 10:51:26;;;;;;;;;;;;;;;28.52;32.51;97005.73;110455;1242;69261;-72
2023/06/09 10:54:12;;;;;;;;;;;;;;;28.79;33.19;96995.85;110423;1241;59726;-70
2023/06/09 10:56:41;;;;;;;;;;;;;;;29.17;31.67;96994.00;110439;1239;60180;-72
2023/06/09 10:59:25;;;;;;;;;;;;;;;29.05;31.37;96994.75;110431;1239;71385;-73
2023/06/09 11:02:03;;;;;;;;;;;;;;;29.37;32.21;96993.69;110392;1241;68493;-73
2023/06/09 11:04:43;;;;;;;;;;;;;;;30.01;31.98;96987.78;110359;1240;69483;-71
2023/06/09 11:07:14;;;;;;;;;;;;;;;30.02;31.74;96987.80;110447;1241;59756;-72
2023/06/09 11:10:03;;;;;;;;;;;;;;;30.11;30.91;96989.31;110464;1241;59763;-71
2023/06/09 11:12:49;;;;;;;;;;;;;;;30.16;31.15;96987.07;110274;1241;71948;-71
2023/06/09 11:15:18;;;;;;;;;;;;;;;30.90;32.10;96983.36;110357;1241;70181;-71
2023/06/09 11:17:48;;;;;;;;;;;;;;;30.92;31.13;96980.48;110090;1245;68273;-73
2023/06/09 11:20:22;;;;;;;;;;;;;;;30.74;30.70;96981.23;110231;1241;59748;-72
2023/06/09 11:22:51;;;;;;;;;;;;;;;29.60;31.24;96977.84;110399;1241;59737;-71
2023/06/09 11:25:20;;;;;;;;;;;;;;;30.01;30.38;96979.60;110390;1241;71940;-72
2023/06/09 11:27:56;;;;;;;;;;;;;;;29.78;30.53;96978.48;110432;1241;69317;-72
2023/06/09 11:30:26;;;;;;;;;;;;;;;30.02;30.59;96976.64;110446;1248;69281;-71
2023/06/09 11:32:59;;;;;;;;;;;;;;;30.33;31.27;96974.39;110444;1241;59689;-71
2023/06/09 11:35:34;;;;;;;;;;;;;;;30.33;30.94;96977.04;110467;1239;59792;-73
2023/06/09 11:38:08;;;;;;;;;;;;;;;29.85;32.33;96969.81;110426;1239;72321;-70
2023/06/09 11:40:38;;;;;;;;;;;;;;;30.06;31.59;96970.44;110295;1241;69121;-72
2023/06/09 11:43:08;;;;;;;;;;;;;;;29.39;32.11;96969.29;110523;1240;69876;-72
2023/06/09 11:45:37;;;;;;;;;;;;;;;29.18;31.69;96966.84;110389;1241;59753;-72
2023/06/09 11:48:06;;;;;;;;;;;;;;;29.11;31.36;96963.32;110427;1241;59709;-71
2023/06/09 11:50:44;;;;;;;;;;;;;;;29.47;31.82;96956.44;110292;1241;71980;-70
2023/06/09 11:53:17;;;;;;;;;;;;;;;30.26;31.61;96955.63;110351;1241;69828;-69
2023/06/09 11:55:46;;;;;;;;;;;;;;;30.66;32.43;96953.91;110497;1241;69908;-71
2023/06/09 11:58:16;;;;;;;;;;;;;;;30.71;31.17;96955.16;110326;1241;59716;-71
2023/06/09 12:00:45;;;;;;;;;;;;;;;30.77;31.55;96949.27;110447;1241;59678;-71
2023/06/09 12:03:17;;;;;;;;;;;;;;;30.89;31.42;96949.41;110326;1241;70925;-72
2023/06/09 12:05:50;;;;;;;;;;;;;;;31.26;32.39;96943.23;110426;1239;69760;-71
2023/06/09 12:08:19;;;;;;;;;;;;;;;31.63;31.41;96941.55;110474;1241;69241;-72
2023/06/09 12:10:47;;;;;;;;;;;;;;;31.76;30.23;96938.31;110319;1248;59754;-71
2023/06/09 12:13:17;;;;;;;;;;;;;;;31.52;30.58;96936.63;110307;1241;60282;-71
2023/06/09 12:15:52;;;;;;;;;;;;;;;31.19;31.33;96933.98;110493;1241;72075;-72
2023/06/09 12:18:21;;;;;;;;;;;;;;;30.55;30.74;96933.42;110313;1241;69249;-72
2023/06/09 12:20:53;;;;;;;;;;;;;;;30.43;30.84;96934.36;110384;1240;69062;-72
2023/06/09 12:23:27;;;;;;;;;;;;;;;29.83;31.53;96929.80;110357;1242;60047;-72
2023/06/09 12:25:55;;;;;;;;;;;;;;;29.32;32.33;96928.81;110318;1241;59697;-71
2023/06/09 12:28:26;;;;;;;;;;;;;;;29.04;31.80;96924.35;110427;1242;72363;-71
2023/06/09 12:30:56;;;;;;;;;;;;;;;29.34;31.85;96922.94;110288;1241;70085;-71
2023/06/09 12:33:26;;;;;;;;;;;;;;;29.82;32.20;96919.65;110466;1241;69357;-72
2023/06/09 12:36:07;;;;;;;;;;;;;;;29.81;31.38;96915.86;110388;1241;59756;-71
2023/06/09 12:38:45;;;;;;;;;;;;;;;29.86;31.92;96913.46;110445;1241;59733;-70
2023/06/09 12:41:15;;;;;;;;;;;;;;;29.72;32.51;96908.30;110268;1239;71048;-70
2023/06/09 12:43:55;;;;;;;;;;;;;;;29.50;33.37;96910.11;110497;1241;68560;-69
2023/06/09 12:46:27;;;;;;;;;;;;;;;29.43;33.49;96904.79;110304;1241;68835;-69
2023/06/09 12:49:03;;;;;;;;;;;;;;;29.39;33.66;96906.77;110262;1241;59691;-70
2023/06/09 12:51:33;;;;;;;;;;;;;;;29.35;33.09;96901.14;110418;1241;59750;-72
2023/06/09 12:54:01;;;;;;;;;;;;;;;29.26;32.71;96899.48;110381;1241;70835;-70